DHL370 SCCI-SAWH
Flight info
| Callsign | DHL370 |
|---|---|
| Flight time | 0h 37m |
| Altitude | 21000 |
| Route | ALMIR DCT DABLI DABLI1Q |
| Aircraft | B752/M-SDE2E3FGHIJ3J4J7RWXY/LB1 |
Departure
| Time | 2026-04-21 21:51 |
|---|---|
| Airport | President Carlos Ibáñez International Airport (SCCI) |
Arrival
| Time | 2026-04-21 22:28 |
|---|---|
| Airport | Ushuaia - Malvinas Argentinas International Airport (SAWH) |
| Time | Latitude | Longitude | Altitude | Speed | Heading |
|---|---|---|---|---|---|
| 2026-04-21 21:14 | -53.00445 | -70.84450 | 136 ft | 0 kts | 177° |
| 2026-04-21 21:15 | -53.00453 | -70.84695 | 136 ft | 0 kts | 267° |
| 2026-04-21 21:40 | -53.00452 | -70.84700 | 135 ft | 0 kts | 278° |
| 2026-04-21 21:40 | -53.00450 | -70.84707 | 135 ft | 0 kts | 314° |
| 2026-04-21 21:41 | -53.00449 | -70.84708 | 135 ft | 0 kts | 314° |
| 2026-04-21 21:41 | -53.00422 | -70.84747 | 135 ft | 7 kts | 320° |
| 2026-04-21 21:41 | -53.00401 | -70.84816 | 135 ft | 6 kts | 275° |
| 2026-04-21 21:42 | -53.00400 | -70.84890 | 135 ft | 5 kts | 269° |
| 2026-04-21 21:42 | -53.00399 | -70.84955 | 135 ft | 6 kts | 270° |
| 2026-04-21 21:42 | -53.00399 | -70.84984 | 134 ft | 0 kts | 269° |
| 2026-04-21 21:42 | -53.00399 | -70.84990 | 134 ft | 4 kts | 269° |
| 2026-04-21 21:43 | -53.00402 | -70.85075 | 134 ft | 8 kts | 263° |
| 2026-04-21 21:43 | -53.00429 | -70.85156 | 135 ft | 8 kts | 224° |
| 2026-04-21 21:43 | -53.00482 | -70.85210 | 135 ft | 9 kts | 211° |
| 2026-04-21 21:43 | -53.00546 | -70.85271 | 135 ft | 11 kts | 207° |
| 2026-04-21 21:44 | -53.00623 | -70.85339 | 135 ft | 13 kts | 209° |
| 2026-04-21 21:44 | -53.00674 | -70.85387 | 135 ft | 3 kts | 209° |
| 2026-04-21 21:45 | -53.00700 | -70.85410 | 135 ft | 11 kts | 208° |
| 2026-04-21 21:46 | -53.00756 | -70.85414 | 135 ft | 7 kts | 146° |
| 2026-04-21 21:46 | -53.00798 | -70.85358 | 135 ft | 7 kts | 140° |
| 2026-04-21 21:46 | -53.00844 | -70.85295 | 135 ft | 11 kts | 139° |
| 2026-04-21 21:46 | -53.00915 | -70.85193 | 135 ft | 14 kts | 138° |
| 2026-04-21 21:47 | -53.00992 | -70.85078 | 135 ft | 14 kts | 139° |
| 2026-04-21 21:47 | -53.01070 | -70.84965 | 134 ft | 15 kts | 139° |
| 2026-04-21 21:47 | -53.01150 | -70.84850 | 132 ft | 15 kts | 139° |
| 2026-04-21 21:47 | -53.01230 | -70.84734 | 132 ft | 14 kts | 139° |
| 2026-04-21 21:48 | -53.01304 | -70.84628 | 131 ft | 10 kts | 133° |
| 2026-04-21 21:48 | -53.01334 | -70.84550 | 129 ft | 3 kts | 163° |
| 2026-04-21 21:48 | -53.01345 | -70.84569 | 130 ft | 1 kts | 279° |
| 2026-04-21 21:48 | -53.01340 | -70.84578 | 130 ft | 0 kts | 321° |
| 2026-04-21 21:50 | -53.01202 | -70.84774 | 132 ft | 66 kts | 319° |
| 2026-04-21 21:50 | -53.00634 | -70.85600 | 138 ft | 148 kts | 320° |
| 2026-04-21 21:50 | -52.99701 | -70.86923 | 443 ft | 195 kts | 323° |
| 2026-04-21 21:51 | -52.98617 | -70.88324 | 1538 ft | 205 kts | 327° |
| 2026-04-21 21:51 | -52.97333 | -70.89304 | 2151 ft | 221 kts | 352° |
| 2026-04-21 21:51 | -52.95786 | -70.88837 | 2889 ft | 233 kts | 31° |
| 2026-04-21 21:51 | -52.94672 | -70.86872 | 3665 ft | 250 kts | 58° |
| 2026-04-21 21:52 | -52.94177 | -70.84025 | 4287 ft | 273 kts | 85° |
| 2026-04-21 21:52 | -52.94539 | -70.80959 | 5306 ft | 279 kts | 113° |
| 2026-04-21 21:52 | -52.95699 | -70.78345 | 6043 ft | 295 kts | 137° |
| 2026-04-21 21:52 | -52.97306 | -70.76131 | 6834 ft | 303 kts | 139° |
| 2026-04-21 21:53 | -52.98907 | -70.73958 | 7800 ft | 304 kts | 140° |
| 2026-04-21 21:53 | -53.00562 | -70.71745 | 8725 ft | 306 kts | 140° |
| 2026-04-21 21:53 | -53.02192 | -70.69484 | 9413 ft | 316 kts | 139° |
| 2026-04-21 21:53 | -53.03837 | -70.67001 | 10125 ft | 324 kts | 140° |
| 2026-04-21 21:54 | -53.05846 | -70.65045 | 10421 ft | 346 kts | 160° |
| 2026-04-21 21:54 | -53.08137 | -70.63599 | 10804 ft | 365 kts | 158° |
| 2026-04-21 21:54 | -53.10527 | -70.61762 | 11129 ft | 385 kts | 155° |
| 2026-04-21 21:54 | -53.12931 | -70.59779 | 11730 ft | 394 kts | 154° |
| 2026-04-21 21:55 | -53.15390 | -70.57678 | 12474 ft | 399 kts | 153° |
| 2026-04-21 21:55 | -53.17865 | -70.55520 | 13084 ft | 408 kts | 153° |
| 2026-04-21 21:55 | -53.20379 | -70.53303 | 13782 ft | 414 kts | 153° |
| 2026-04-21 21:55 | -53.22940 | -70.51033 | 14455 ft | 420 kts | 153° |
| 2026-04-21 21:56 | -53.25549 | -70.48710 | 15058 ft | 428 kts | 153° |
| 2026-04-21 21:56 | -53.28160 | -70.46378 | 15788 ft | 431 kts | 153° |
| 2026-04-21 21:56 | -53.30839 | -70.43982 | 16333 ft | 440 kts | 153° |
| 2026-04-21 21:56 | -53.33499 | -70.41598 | 17045 ft | 442 kts | 153° |
| 2026-04-21 21:57 | -53.36237 | -70.39139 | 17569 ft | 450 kts | 153° |
| 2026-04-21 21:57 | -53.38934 | -70.36712 | 18615 ft | 441 kts | 153° |
| 2026-04-21 21:57 | -53.41611 | -70.34302 | 19726 ft | 433 kts | 153° |
| 2026-04-21 21:57 | -53.44256 | -70.31915 | 20421 ft | 435 kts | 153° |
| 2026-04-21 21:58 | -53.46903 | -70.29526 | 20464 ft | 439 kts | 153° |
| 2026-04-21 21:58 | -53.49564 | -70.27121 | 20469 ft | 435 kts | 153° |
| 2026-04-21 21:58 | -53.52255 | -70.24683 | 20461 ft | 433 kts | 153° |
| 2026-04-21 21:58 | -53.54830 | -70.22347 | 20450 ft | 418 kts | 153° |
| 2026-04-21 21:59 | -53.56515 | -70.20813 | 20443 ft | 402 kts | 153° |
| 2026-04-21 21:59 | -53.59690 | -70.17927 | 20445 ft | 384 kts | 153° |
| 2026-04-21 21:59 | -53.62074 | -70.15756 | 20471 ft | 394 kts | 153° |
| 2026-04-21 21:59 | -53.64479 | -70.13567 | 20460 ft | 400 kts | 153° |
| 2026-04-21 22:00 | -53.66120 | -70.12070 | 20448 ft | 398 kts | 153° |
| 2026-04-21 22:00 | -53.69331 | -70.09133 | 20442 ft | 394 kts | 153° |
| 2026-04-21 22:00 | -53.71736 | -70.06934 | 20459 ft | 395 kts | 153° |
| 2026-04-21 22:00 | -53.74169 | -70.04700 | 20451 ft | 397 kts | 153° |
| 2026-04-21 22:01 | -53.76561 | -70.02506 | 20444 ft | 396 kts | 153° |
| 2026-04-21 22:01 | -53.78981 | -70.00282 | 20459 ft | 396 kts | 153° |
| 2026-04-21 22:01 | -53.81400 | -69.98057 | 20459 ft | 398 kts | 153° |
| 2026-04-21 22:01 | -53.83824 | -69.95821 | 20465 ft | 397 kts | 153° |
| 2026-04-21 22:02 | -53.86219 | -69.93614 | 20453 ft | 395 kts | 154° |
| 2026-04-21 22:02 | -53.88645 | -69.91371 | 20472 ft | 396 kts | 154° |
| 2026-04-21 22:02 | -53.91075 | -69.89126 | 20470 ft | 400 kts | 154° |
| 2026-04-21 22:02 | -53.93495 | -69.86880 | 20465 ft | 399 kts | 153° |
| 2026-04-21 22:03 | -53.95917 | -69.84637 | 20473 ft | 396 kts | 153° |
| 2026-04-21 22:03 | -53.98219 | -69.82095 | 20472 ft | 396 kts | 138° |
| 2026-04-21 22:03 | -54.00075 | -69.78661 | 20512 ft | 395 kts | 120° |
| 2026-04-21 22:03 | -54.01358 | -69.74672 | 20490 ft | 388 kts | 108° |
| 2026-04-21 22:04 | -54.02455 | -69.70467 | 20469 ft | 386 kts | 108° |
| 2026-04-21 22:04 | -54.03166 | -69.67696 | 20459 ft | 384 kts | 108° |
| 2026-04-21 22:04 | -54.04543 | -69.62174 | 20465 ft | 385 kts | 107° |
| 2026-04-21 22:04 | -54.05576 | -69.57956 | 20469 ft | 389 kts | 107° |
| 2026-04-21 22:05 | -54.06620 | -69.53683 | 20452 ft | 387 kts | 106° |
| 2026-04-21 22:05 | -54.07636 | -69.49496 | 20450 ft | 385 kts | 107° |
| 2026-04-21 22:05 | -54.08647 | -69.45313 | 20455 ft | 386 kts | 107° |
| 2026-04-21 22:05 | -54.09670 | -69.41079 | 20451 ft | 387 kts | 106° |
| 2026-04-21 22:06 | -54.10685 | -69.36857 | 20437 ft | 387 kts | 107° |
| 2026-04-21 22:06 | -54.11704 | -69.32617 | 20443 ft | 387 kts | 105° |
| 2026-04-21 22:06 | -54.12715 | -69.28408 | 20438 ft | 385 kts | 105° |
| 2026-04-21 22:06 | -54.13720 | -69.24204 | 20447 ft | 385 kts | 106° |
| 2026-04-21 22:07 | -54.14395 | -69.21376 | 20450 ft | 386 kts | 105° |
| 2026-04-21 22:07 | -54.15400 | -69.17160 | 20452 ft | 388 kts | 106° |
| 2026-04-21 22:07 | -54.16757 | -69.11462 | 20446 ft | 387 kts | 106° |
| 2026-04-21 22:07 | -54.17420 | -69.08669 | 20456 ft | 387 kts | 106° |
| 2026-04-21 22:08 | -54.18769 | -69.02981 | 20441 ft | 387 kts | 106° |
| 2026-04-21 22:08 | -54.19437 | -69.00174 | 20413 ft | 388 kts | 107° |
| 2026-04-21 22:08 | -54.20878 | -68.94578 | 20356 ft | 383 kts | 105° |
| 2026-04-21 22:08 | -54.21800 | -68.90386 | 20444 ft | 385 kts | 105° |
| 2026-04-21 22:09 | -54.22780 | -68.86073 | 20459 ft | 392 kts | 106° |
| 2026-04-21 22:09 | -54.23782 | -68.81749 | 20435 ft | 391 kts | 107° |
| 2026-04-21 22:09 | -54.24443 | -68.78910 | 20445 ft | 389 kts | 106° |
| 2026-04-21 22:09 | -54.25767 | -68.73224 | 20447 ft | 390 kts | 107° |
| 2026-04-21 22:10 | -54.26773 | -68.68900 | 20477 ft | 399 kts | 106° |
| 2026-04-21 22:10 | -54.27791 | -68.64522 | 20453 ft | 404 kts | 107° |
| 2026-04-21 22:10 | -54.28832 | -68.60035 | 20463 ft | 406 kts | 106° |
| 2026-04-21 22:10 | -54.29503 | -68.57151 | 20455 ft | 405 kts | 107° |
| 2026-04-21 22:11 | -54.30877 | -68.51217 | 20446 ft | 402 kts | 107° |
| 2026-04-21 22:11 | -54.31894 | -68.46802 | 20453 ft | 406 kts | 107° |
| 2026-04-21 22:11 | -54.32938 | -68.42268 | 20302 ft | 413 kts | 107° |
| 2026-04-21 22:11 | -54.33992 | -68.37695 | 19862 ft | 410 kts | 107° |
| 2026-04-21 22:12 | -54.35014 | -68.33238 | 19429 ft | 400 kts | 106° |
| 2026-04-21 22:12 | -54.36022 | -68.28847 | 19014 ft | 392 kts | 106° |
| 2026-04-21 22:12 | -54.37011 | -68.24513 | 18613 ft | 389 kts | 106° |
| 2026-04-21 22:12 | -54.37976 | -68.20270 | 18239 ft | 390 kts | 106° |
| 2026-04-21 22:13 | -54.38641 | -68.17345 | 17989 ft | 389 kts | 106° |
| 2026-04-21 22:13 | -54.39610 | -68.13082 | 17606 ft | 384 kts | 106° |
| 2026-04-21 22:13 | -54.40888 | -68.07452 | 17086 ft | 376 kts | 105° |
| 2026-04-21 22:13 | -54.41820 | -68.03332 | 16730 ft | 371 kts | 106° |
| 2026-04-21 22:14 | -54.42440 | -68.00577 | 16478 ft | 368 kts | 105° |
| 2026-04-21 22:14 | -54.43346 | -67.96563 | 16119 ft | 364 kts | 106° |
| 2026-04-21 22:14 | -54.44262 | -67.92484 | 15756 ft | 360 kts | 106° |
| 2026-04-21 22:14 | -54.45153 | -67.88521 | 15402 ft | 356 kts | 106° |
| 2026-04-21 22:15 | -54.46034 | -67.84592 | 15051 ft | 352 kts | 106° |
| 2026-04-21 22:15 | -54.47189 | -67.79422 | 14584 ft | 348 kts | 106° |
| 2026-04-21 22:15 | -54.47760 | -67.76866 | 14466 ft | 341 kts | 106° |
| 2026-04-21 22:15 | -54.48676 | -67.73120 | 14474 ft | 342 kts | 115° |
| 2026-04-21 22:16 | -54.50113 | -67.69820 | 14508 ft | 356 kts | 135° |
| 2026-04-21 22:16 | -54.52113 | -67.67183 | 14124 ft | 371 kts | 152° |
| 2026-04-21 22:16 | -54.55275 | -67.65359 | 13822 ft | 351 kts | 178° |
| 2026-04-21 22:16 | -54.56856 | -67.65266 | 13803 ft | 337 kts | 188° |
| 2026-04-21 22:17 | -54.59146 | -67.65394 | 13507 ft | 330 kts | 185° |
| 2026-04-21 22:17 | -54.61426 | -67.65323 | 12987 ft | 331 kts | 182° |
| 2026-04-21 22:17 | -54.64485 | -67.65099 | 12322 ft | 335 kts | 182° |
| 2026-04-21 22:17 | -54.66027 | -67.64958 | 11988 ft | 336 kts | 181° |
| 2026-04-21 22:18 | -54.68348 | -67.64723 | 11479 ft | 339 kts | 181° |
| 2026-04-21 22:18 | -54.70717 | -67.64469 | 10971 ft | 340 kts | 181° |
| 2026-04-21 22:18 | -54.73064 | -67.64211 | 10388 ft | 345 kts | 181° |
| 2026-04-21 22:18 | -54.76262 | -67.63870 | 9396 ft | 357 kts | 180° |
| 2026-04-21 22:19 | -54.77886 | -67.63696 | 8878 ft | 359 kts | 180° |
| 2026-04-21 22:19 | -54.80325 | -67.63341 | 8075 ft | 348 kts | 176° |
| 2026-04-21 22:19 | -54.82677 | -67.63296 | 7413 ft | 327 kts | 195° |
| 2026-04-21 22:19 | -54.84678 | -67.64484 | 7269 ft | 286 kts | 220° |
| 2026-04-21 22:20 | -54.86238 | -67.67570 | 6998 ft | 236 kts | 259° |
| 2026-04-21 22:20 | -54.86473 | -67.69295 | 6859 ft | 218 kts | 273° |
| 2026-04-21 22:20 | -54.86340 | -67.72561 | 6479 ft | 199 kts | 284° |
| 2026-04-21 22:20 | -54.86160 | -67.74104 | 6249 ft | 193 kts | 289° |
| 2026-04-21 22:21 | -54.85821 | -67.76321 | 5864 ft | 189 kts | 289° |
| 2026-04-21 22:21 | -54.85548 | -67.78494 | 5514 ft | 185 kts | 285° |
| 2026-04-21 22:21 | -54.85301 | -67.80709 | 5208 ft | 193 kts | 285° |
| 2026-04-21 22:21 | -54.84970 | -67.83729 | 5004 ft | 186 kts | 285° |
| 2026-04-21 22:22 | -54.84817 | -67.85163 | 5079 ft | 183 kts | 285° |
| 2026-04-21 22:22 | -54.84584 | -67.87366 | 5047 ft | 190 kts | 285° |
| 2026-04-21 22:22 | -54.84346 | -67.89640 | 5039 ft | 188 kts | 285° |
| 2026-04-21 22:22 | -54.84127 | -67.91861 | 4967 ft | 196 kts | 285° |
| 2026-04-21 22:23 | -54.83882 | -67.94239 | 4406 ft | 202 kts | 285° |
| 2026-04-21 22:23 | -54.83626 | -67.96607 | 3966 ft | 197 kts | 285° |
| 2026-04-21 22:23 | -54.83325 | -67.99439 | 3984 ft | 162 kts | 284° |
| 2026-04-21 22:23 | -54.83396 | -68.01289 | 3875 ft | 143 kts | 264° |
| 2026-04-21 22:24 | -54.83550 | -68.02344 | 3914 ft | 136 kts | 263° |
| 2026-04-21 22:24 | -54.83713 | -68.04016 | 4010 ft | 147 kts | 274° |
| 2026-04-21 22:24 | -54.83738 | -68.05810 | 3815 ft | 153 kts | 276° |
| 2026-04-21 22:24 | -54.83709 | -68.07650 | 3346 ft | 155 kts | 279° |
| 2026-04-21 22:25 | -54.83631 | -68.09493 | 2807 ft | 154 kts | 281° |
| 2026-04-21 22:25 | -54.83532 | -68.11299 | 2360 ft | 150 kts | 273° |
| 2026-04-21 22:25 | -54.83659 | -68.13042 | 1993 ft | 142 kts | 266° |
| 2026-04-21 22:25 | -54.83818 | -68.15333 | 1441 ft | 144 kts | 271° |
| 2026-04-21 22:26 | -54.83833 | -68.16447 | 1225 ft | 138 kts | 275° |
| 2026-04-21 22:26 | -54.83854 | -68.18027 | 1010 ft | 134 kts | 270° |
| 2026-04-21 22:26 | -54.83946 | -68.19666 | 886 ft | 140 kts | 269° |
| 2026-04-21 22:26 | -54.84023 | -68.21849 | 737 ft | 141 kts | 274° |
| 2026-04-21 22:27 | -54.84049 | -68.22958 | 709 ft | 135 kts | 271° |
| 2026-04-21 22:27 | -54.84148 | -68.24586 | 526 ft | 138 kts | 271° |
| 2026-04-21 22:27 | -54.84211 | -68.26193 | 243 ft | 133 kts | 272° |
| 2026-04-21 22:27 | -54.84285 | -68.28307 | 60 ft | 129 kts | 272° |
| 2026-04-21 22:28 | -54.84319 | -68.29258 | 79 ft | 101 kts | 269° |
| 2026-04-21 22:28 | -54.84355 | -68.30227 | 85 ft | 64 kts | 265° |
| 2026-04-21 22:28 | -54.84377 | -68.30740 | 90 ft | 27 kts | 266° |
| 2026-04-21 22:28 | -54.84359 | -68.30926 | 89 ft | 11 kts | 330° |
| 2026-04-21 22:29 | -54.84300 | -68.30957 | 89 ft | 7 kts | 351° |
| 2026-04-21 22:29 | -54.84253 | -68.30963 | 90 ft | 6 kts | 355° |
| 2026-04-21 22:29 | -54.84213 | -68.30969 | 90 ft | 5 kts | 355° |
| 2026-04-21 22:29 | -54.84179 | -68.30975 | 91 ft | 4 kts | 353° |
| 2026-04-21 22:30 | -54.84152 | -68.30977 | 92 ft | 4 kts | 357° |
| 2026-04-21 22:30 | -54.84118 | -68.30980 | 92 ft | 5 kts | 356° |
| 2026-04-21 22:30 | -54.84079 | -68.30984 | 92 ft | 6 kts | 355° |
| 2026-04-21 22:30 | -54.84021 | -68.30999 | 91 ft | 4 kts | 353° |
| 2026-04-21 22:31 | -54.84008 | -68.31001 | 91 ft | 0 kts | 356° |